Time;durP1;ratioP1;P1;durP2;ratioP2;P2;SDS_P1;SDS_P2;PMS_P1;PMS_P2;Temp;Humidity;BMP_temperature;BMP_pressure;BME280_temperature;BME280_humidity;BME280_pressure;Samples;Min_cycle;Max_cycle;Signal;HPM_P1;HPM_P2
2024/01/30 00:00:37;;;;;;;0.00;0.00;;;;;;;;;;5074217;28;20037;-87
2024/01/30 00:03:03;;;;;;;0.00;0.00;;;;;;;;;;5056206;28;20035;-87
2024/01/30 00:05:28;;;;;;;0.00;0.00;;;;;;;;;;5074009;28;20033;-87
2024/01/30 00:07:54;;;;;;;0.00;0.00;;;;;;;;;;5074025;28;20036;-85
2024/01/30 00:10:20;;;;;;;0.00;0.00;;;;;;;;;;5055973;28;20037;-85
2024/01/30 00:12:46;;;;;;;0.00;0.00;;;;;;;;;;5074343;28;20032;-86
2024/01/30 00:15:11;;;;;;;0.00;0.00;;;;;;;;;;5059019;28;20032;-86
2024/01/30 00:17:37;;;;;;;0.00;0.00;;;;;;;;;;5048294;28;20060;-86
2024/01/30 00:20:05;;;;;;;0.00;0.00;;;;;;;;;;5083429;28;20032;-86
2024/01/30 00:22:32;;;;;;;0.00;0.00;;;;;;;;;;5064704;28;20036;-86
2024/01/30 00:24:57;;;;;;;0.00;0.00;;;;;;;;;;5062707;28;20131;-88
2024/01/30 00:27:23;;;;;;;0.00;0.00;;;;;;;;;;5036768;28;20439;-89
2024/01/30 00:29:49;;;;;;;0.00;0.00;;;;;;;;;;5054108;28;20037;-88
2024/01/30 00:32:14;;;;;;;0.00;0.00;;;;;;;;;;5054099;28;20315;-86
2024/01/30 00:34:41;;;;;;;0.00;0.00;;;;;;;;;;5035821;28;20040;-86
2024/01/30 00:37:06;;;;;;;0.00;0.00;;;;;;;;;;5053885;28;20032;-87
2024/01/30 00:39:32;;;;;;;0.00;0.00;;;;;;;;;;5035844;28;20025;-88
2024/01/30 00:41:58;;;;;;;0.00;0.00;;;;;;;;;;5019584;28;20439;-87
2024/01/30 00:44:23;;;;;;;0.00;0.00;;;;;;;;;;5003132;28;20041;-87
2024/01/30 00:46:49;;;;;;;0.00;0.00;;;;;;;;;;5038742;28;20052;-85
2024/01/30 00:49:14;;;;;;;0.00;0.00;;;;;;;;;;5057556;28;20032;-85
2024/01/30 00:51:40;;;;;;;0.00;0.00;;;;;;;;;;5036877;28;20032;-85
2024/01/30 00:54:06;;;;;;;0.00;0.00;;;;;;;;;;5053832;28;20068;-86
2024/01/30 00:56:32;;;;;;;0.00;0.00;;;;;;;;;;5055225;28;20112;-87
2024/01/30 00:58:57;;;;;;;0.00;0.00;;;;;;;;;;5005983;28;20463;-87
2024/01/30 01:01:23;;;;;;;0.00;0.00;;;;;;;;;;5044335;28;20102;-87
2024/01/30 01:03:48;;;;;;;0.00;0.00;;;;;;;;;;5042202;28;20041;-88
2024/01/30 01:06:14;;;;;;;0.00;0.00;;;;;;;;;;5055850;28;20040;-87
2024/01/30 01:08:39;;;;;;;0.00;0.00;;;;;;;;;;5039290;28;20037;-87
2024/01/30 01:11:05;;;;;;;0.00;0.00;;;;;;;;;;5056990;28;20355;-86
2024/01/30 01:13:30;;;;;;;0.00;0.00;;;;;;;;;;5057739;28;20063;-87
2024/01/30 01:15:56;;;;;;;0.00;0.00;;;;;;;;;;5058089;28;20064;-86
2024/01/30 01:18:21;;;;;;;0.00;0.00;;;;;;;;;;5043034;28;20076;-86
2024/01/30 01:20:47;;;;;;;0.00;0.00;;;;;;;;;;5026841;28;20072;-87
2024/01/30 01:23:13;;;;;;;0.00;0.00;;;;;;;;;;5039319;28;20029;-88
2024/01/30 01:25:38;;;;;;;0.00;0.00;;;;;;;;;;5037905;28;20017;-87
2024/01/30 01:28:04;;;;;;;0.00;0.00;;;;;;;;;;5038902;28;20079;-87
2024/01/30 01:30:30;;;;;;;0.00;0.00;;;;;;;;;;5022563;28;20025;-87
2024/01/30 01:32:56;;;;;;;0.00;0.00;;;;;;;;;;5056398;28;20031;-86
2024/01/30 01:35:25;;;;;;;0.00;0.00;;;;;;;;;;5039216;28;20029;-87
2024/01/30 01:37:59;;;;;;;0.00;0.00;;;;;;;;;;5038813;28;20025;-88
2024/01/30 01:40:25;;;;;;;0.00;0.00;;;;;;;;;;5056727;28;20120;-87
2024/01/30 01:42:52;;;;;;;0.00;0.00;;;;;;;;;;5038604;28;20060;-87
2024/01/30 01:45:17;;;;;;;0.00;0.00;;;;;;;;;;5022537;28;20132;-87
2024/01/30 01:47:45;;;;;;;0.00;0.00;;;;;;;;;;5021732;28;20452;-87
2024/01/30 01:50:12;;;;;;;0.00;0.00;;;;;;;;;;5039004;28;20516;-87
2024/01/30 01:52:37;;;;;;;0.00;0.00;;;;;;;;;;5022238;28;20445;-86
2024/01/30 01:55:03;;;;;;;0.00;0.00;;;;;;;;;;5038319;28;20064;-87
2024/01/30 01:57:28;;;;;;;0.00;0.00;;;;;;;;;;5021660;28;20039;-85
2024/01/30 01:59:55;;;;;;;0.00;0.00;;;;;;;;;;5038492;28;20025;-86
2024/01/30 02:02:22;;;;;;;0.00;0.00;;;;;;;;;;5038111;28;20021;-89
2024/01/30 02:04:48;;;;;;;0.00;0.00;;;;;;;;;;5005552;28;20033;-88
2024/01/30 02:07:13;;;;;;;0.00;0.00;;;;;;;;;;5022031;28;20082;-87
2024/01/30 02:09:39;;;;;;;0.00;0.00;;;;;;;;;;5038237;28;20416;-88
2024/01/30 02:12:04;;;;;;;0.00;0.00;;;;;;;;;;5038118;28;20037;-88
2024/01/30 02:14:30;;;;;;;0.00;0.00;;;;;;;;;;5038415;28;20031;-88
2024/01/30 02:16:55;;;;;;;0.00;0.00;;;;;;;;;;5055540;28;20112;-88
2024/01/30 02:19:21;;;;;;;0.00;0.00;;;;;;;;;;5055411;28;20029;-87
2024/01/30 02:21:47;;;;;;;0.00;0.00;;;;;;;;;;5054759;28;20037;-87
2024/01/30 02:24:12;;;;;;;0.00;0.00;;;;;;;;;;5075847;28;20046;-88
2024/01/30 02:26:38;;;;;;;0.00;0.00;;;;;;;;;;5058140;28;20132;-87
2024/01/30 02:29:03;;;;;;;0.00;0.00;;;;;;;;;;5058057;28;20043;-87
2024/01/30 02:31:28;;;;;;;0.00;0.00;;;;;;;;;;5075751;28;20051;-86
2024/01/30 02:33:54;;;;;;;0.00;0.00;;;;;;;;;;5057683;28;20421;-88
2024/01/30 02:36:20;;;;;;;0.00;0.00;;;;;;;;;;5041304;28;20029;-88
2024/01/30 02:38:46;;;;;;;0.00;0.00;;;;;;;;;;5041128;28;20043;-88
2024/01/30 02:41:12;;;;;;;0.00;0.00;;;;;;;;;;5057550;28;20119;-88
2024/01/30 02:43:37;;;;;;;0.00;0.00;;;;;;;;;;5041103;28;20119;-88
2024/01/30 02:46:03;;;;;;;0.00;0.00;;;;;;;;;;5057119;28;20055;-88
2024/01/30 02:48:28;;;;;;;0.00;0.00;;;;;;;;;;5075090;28;20036;-88
2024/01/30 02:50:54;;;;;;;0.00;0.00;;;;;;;;;;5040928;28;20059;-86
2024/01/30 02:53:19;;;;;;;0.00;0.00;;;;;;;;;;5075530;28;20117;-87
2024/01/30 02:55:45;;;;;;;0.00;0.00;;;;;;;;;;5057448;28;20127;-88
2024/01/30 02:58:10;;;;;;;0.00;0.00;;;;;;;;;;5057267;28;20033;-87
2024/01/30 03:00:36;;;;;;;0.00;0.00;;;;;;;;;;5056932;28;20028;-88
2024/01/30 03:03:02;;;;;;;0.00;0.00;;;;;;;;;;5057273;28;20028;-89
2024/01/30 03:05:27;;;;;;;0.00;0.00;;;;;;;;;;5057091;28;20123;-88
2024/01/30 03:07:53;;;;;;;0.00;0.00;;;;;;;;;;5075012;28;20395;-88
2024/01/30 03:10:19;;;;;;;0.00;0.00;;;;;;;;;;5040726;28;20090;-88
2024/01/30 03:12:46;;;;;;;0.00;0.00;;;;;;;;;;5057200;28;20032;-88
2024/01/30 03:15:11;;;;;;;0.00;0.00;;;;;;;;;;5040377;28;20028;-88
2024/01/30 03:17:37;;;;;;;0.00;0.00;;;;;;;;;;5075057;28;20415;-87
2024/01/30 03:20:03;;;;;;;0.00;0.00;;;;;;;;;;5040376;28;20036;-89
2024/01/30 03:22:29;;;;;;;0.00;0.00;;;;;;;;;;5047772;28;20033;-87
2024/01/30 03:24:55;;;;;;;0.00;0.00;;;;;;;;;;5036750;28;20071;-87
2024/01/30 03:27:20;;;;;;;0.00;0.00;;;;;;;;;;5036955;28;20036;-87
2024/01/30 03:29:46;;;;;;;0.00;0.00;;;;;;;;;;5019298;28;20033;-88
2024/01/30 03:32:11;;;;;;;0.00;0.00;;;;;;;;;;5037055;28;20029;-88
2024/01/30 03:34:37;;;;;;;0.00;0.00;;;;;;;;;;5021369;28;20132;-88
2024/01/30 03:37:03;;;;;;;0.00;0.00;;;;;;;;;;5057089;28;20447;-88
2024/01/30 03:39:28;;;;;;;0.00;0.00;;;;;;;;;;5036971;28;20442;-86
2024/01/30 03:41:54;;;;;;;0.00;0.00;;;;;;;;;;5019832;28;20036;-86
2024/01/30 03:44:19;;;;;;;0.00;0.00;;;;;;;;;;5054173;28;20098;-87
2024/01/30 03:46:45;;;;;;;0.00;0.00;;;;;;;;;;5054338;28;20502;-88
2024/01/30 03:49:11;;;;;;;0.00;0.00;;;;;;;;;;5036704;28;20052;-87
2024/01/30 03:51:36;;;;;;;0.00;0.00;;;;;;;;;;5036884;28;20454;-87
2024/01/30 03:54:02;;;;;;;0.00;0.00;;;;;;;;;;5003954;28;20029;-88
2024/01/30 03:56:27;;;;;;;0.00;0.00;;;;;;;;;;5058051;28;20093;-86
2024/01/30 03:58:53;;;;;;;0.00;0.00;;;;;;;;;;5029778;28;20041;-86
2024/01/30 04:01:19;;;;;;;0.00;0.00;;;;;;;;;;5054619;28;20036;-87
2024/01/30 04:03:44;;;;;;;0.00;0.00;;;;;;;;;;5072329;28;20037;-86
2024/01/30 04:06:11;;;;;;;0.00;0.00;;;;;;;;;;5028406;28;20033;-87
2024/01/30 04:08:37;;;;;;;0.00;0.00;;;;;;;;;;5022454;28;20063;-88
2024/01/30 04:11:07;;;;;;;0.00;0.00;;;;;;;;;;5039199;28;20475;-88
2024/01/30 04:13:33;;;;;;;0.00;0.00;;;;;;;;;;5022108;28;20440;-88
2024/01/30 04:16:02;;;;;;;0.00;0.00;;;;;;;;;;5020345;28;20037;-87
2024/01/30 04:18:28;;;;;;;0.00;0.00;;;;;;;;;;5036352;28;20033;-88
2024/01/30 04:20:53;;;;;;;0.00;0.00;;;;;;;;;;5019665;28;20056;-86
2024/01/30 04:23:19;;;;;;;0.00;0.00;;;;;;;;;;5019807;28;20036;-87
2024/01/30 04:25:44;;;;;;;0.00;0.00;;;;;;;;;;5054840;28;20068;-88
2024/01/30 04:28:12;;;;;;;0.00;0.00;;;;;;;;;;5038430;28;20359;-89
2024/01/30 04:30:38;;;;;;;0.00;0.00;;;;;;;;;;5034590;28;20040;-86
2024/01/30 04:33:04;;;;;;;0.00;0.00;;;;;;;;;;5040647;28;20033;-87
2024/01/30 04:35:29;;;;;;;0.00;0.00;;;;;;;;;;5032823;28;20040;-85
2024/01/30 04:37:55;;;;;;;0.00;0.00;;;;;;;;;;5066211;28;20120;-87
2024/01/30 04:40:21;;;;;;;0.00;0.00;;;;;;;;;;5054224;28;20123;-88
2024/01/30 04:42:46;;;;;;;0.00;0.00;;;;;;;;;;5039706;28;20040;-87
2024/01/30 04:45:12;;;;;;;0.00;0.00;;;;;;;;;;5057511;28;20422;-88
2024/01/30 04:47:38;;;;;;;0.00;0.00;;;;;;;;;;5039555;28;20041;-88
2024/01/30 04:50:06;;;;;;;0.00;0.00;;;;;;;;;;5039659;28;20455;-86
2024/01/30 04:52:32;;;;;;;0.00;0.00;;;;;;;;;;5022897;28;20029;-88
2024/01/30 04:54:57;;;;;;;0.00;0.00;;;;;;;;;;5039771;28;20024;-88
2024/01/30 04:57:23;;;;;;;0.00;0.00;;;;;;;;;;5022805;28;20071;-88
2024/01/30 04:59:50;;;;;;;0.00;0.00;;;;;;;;;;5058343;28;20103;-88
2024/01/30 05:02:15;;;;;;;0.00;0.00;;;;;;;;;;5057752;28;20451;-87
2024/01/30 05:04:41;;;;;;;0.00;0.00;;;;;;;;;;5007841;28;20128;-85
2024/01/30 05:07:07;;;;;;;0.00;0.00;;;;;;;;;;5060122;28;20037;-86
2024/01/30 05:09:32;;;;;;;0.00;0.00;;;;;;;;;;5026074;28;20033;-85
2024/01/30 05:11:58;;;;;;;0.00;0.00;;;;;;;;;;5064009;28;20037;-85
2024/01/30 05:14:23;;;;;;;0.00;0.00;;;;;;;;;;5075615;28;20025;-85
2024/01/30 05:16:49;;;;;;;0.00;0.00;;;;;;;;;;5043459;28;20028;-84
2024/01/30 05:19:15;;;;;;;0.00;0.00;;;;;;;;;;5058371;28;20043;-84
2024/01/30 05:21:41;;;;;;;0.00;0.00;;;;;;;;;;5071838;28;20036;-84
2024/01/30 05:24:06;;;;;;;0.00;0.00;;;;;;;;;;5039911;28;20049;-84
2024/01/30 05:26:32;;;;;;;0.00;0.00;;;;;;;;;;5024032;28;20033;-85
2024/01/30 05:28:58;;;;;;;0.00;0.00;;;;;;;;;;5022900;28;20501;-84
2024/01/30 05:31:26;;;;;;;0.10;0.00;;;;;;;;;;5057161;28;20039;-84
2024/01/30 05:33:51;;;;;;;0.00;0.00;;;;;;;;;;5039649;28;20063;-84
2024/01/30 05:36:16;;;;;;;0.00;0.00;;;;;;;;;;5058119;28;20121;-85
2024/01/30 05:38:49;;;;;;;0.00;0.00;;;;;;;;;;5040352;28;20163;-83
2024/01/30 05:41:15;;;;;;;0.00;0.00;;;;;;;;;;5039278;28;20476;-80
2024/01/30 05:43:44;;;;;;;0.00;0.00;;;;;;;;;;5006260;28;20062;-78
2024/01/30 05:46:12;;;;;;;0.00;0.00;;;;;;;;;;5037779;28;20056;-77
2024/01/30 05:48:43;;;;;;;0.00;0.00;;;;;;;;;;5038970;28;20473;-79
2024/01/30 05:51:12;;;;;;;0.00;0.00;;;;;;;;;;5055298;28;20439;-79
2024/01/30 05:53:38;;;;;;;0.00;0.00;;;;;;;;;;5037697;28;20411;-77
2024/01/30 05:56:04;;;;;;;0.00;0.00;;;;;;;;;;5009144;28;20037;-78
2024/01/30 05:58:31;;;;;;;0.00;0.00;;;;;;;;;;5053294;28;20034;-78
2024/01/30 06:01:13;;;;;;;0.00;0.00;;;;;;;;;;5016074;28;20107;-78
2024/01/30 06:03:40;;;;;;;0.00;0.00;;;;;;;;;;5001351;28;20056;-77
2024/01/30 06:06:15;;;;;;;0.00;0.00;;;;;;;;;;5051485;28;20035;-82
2024/01/30 06:08:41;;;;;;;0.00;0.00;;;;;;;;;;5021298;28;20037;-83
2024/01/30 06:11:11;;;;;;;0.00;0.00;;;;;;;;;;5033495;28;20059;-82
2024/01/30 06:13:39;;;;;;;0.00;0.00;;;;;;;;;;5049900;28;20032;-80
2024/01/30 06:16:11;;;;;;;0.00;0.00;;;;;;;;;;5036715;28;20033;-82
2024/01/30 06:18:37;;;;;;;0.00;0.00;;;;;;;;;;5050808;28;20139;-81
2024/01/30 06:31:04;;;;;;;0.00;0.00;;;;;;;;;;5044320;22;20507;-79
2024/01/30 06:33:30;;;;;;;0.00;0.00;;;;;;;;;;5018326;28;20086;-81
2024/01/30 06:35:55;;;;;;;0.00;0.00;;;;;;;;;;5051673;28;20045;-81
2024/01/30 06:38:21;;;;;;;0.00;0.00;;;;;;;;;;5034033;28;20036;-80
2024/01/30 06:40:47;;;;;;;0.00;0.00;;;;;;;;;;5052558;28;20035;-79
2024/01/30 06:43:58;;;;;;;0.10;0.00;;;;;;;;;;5022913;28;20032;-83
2024/01/30 06:46:23;;;;;;;0.00;0.00;;;;;;;;;;5026618;28;20029;-82
2024/01/30 06:48:49;;;;;;;0.47;0.30;;;;;;;;;;5056278;28;20032;-85
2024/01/30 06:51:14;;;;;;;0.03;0.00;;;;;;;;;;5056343;28;20025;-85
2024/01/30 06:53:40;;;;;;;0.00;0.00;;;;;;;;;;5054706;28;20017;-84
2024/01/30 06:56:20;;;;;;;0.00;0.00;;;;;;;;;;5040077;28;20040;-85
2024/01/30 06:58:50;;;;;;;0.00;0.00;;;;;;;;;;5052109;28;20025;-83
2024/01/30 07:01:54;;;;;;;0.00;0.00;;;;;;;;;;5055600;28;20031;-86
2024/01/30 07:30:40;;;;;;;0.00;0.00;;;;;;;;;;6001338;22;20101;-87
2024/01/30 07:33:33;;;;;;;0.00;0.00;;;;;;;;;;5025089;28;20041;-85
2024/01/30 07:36:33;;;;;;;0.00;0.00;;;;;;;;;;5040553;28;20056;-83
2024/01/30 07:39:05;;;;;;;0.00;0.00;;;;;;;;;;5049496;28;20021;-82
2024/01/30 07:41:31;;;;;;;0.00;0.00;;;;;;;;;;5006591;28;20028;-85
2024/01/30 07:43:57;;;;;;;0.00;0.00;;;;;;;;;;5026991;28;20110;-84
2024/01/30 07:46:22;;;;;;;0.00;0.00;;;;;;;;;;5024322;28;20093;-85
2024/01/30 07:48:51;;;;;;;0.00;0.00;;;;;;;;;;5046526;28;20020;-86
2024/01/30 07:51:16;;;;;;;0.00;0.00;;;;;;;;;;5037711;28;20026;-86
2024/01/30 07:54:06;;;;;;;0.00;0.00;;;;;;;;;;5030805;28;20055;-85
2024/01/30 07:56:31;;;;;;;0.00;0.00;;;;;;;;;;5036151;28;20056;-90
2024/01/30 08:18:20;;;;;;;0.00;0.00;;;;;;;;;;5543484;22;20053;-88
2024/01/30 08:20:42;;;;;;;0.00;0.00;;;;;;;;;;5516050;23;20062;-85
2024/01/30 08:23:08;;;;;;;0.00;0.00;;;;;;;;;;5016107;28;20033;-87
2024/01/30 08:25:34;;;;;;;0.00;0.00;;;;;;;;;;5012577;28;20088;-85
2024/01/30 08:28:00;;;;;;;0.00;0.00;;;;;;;;;;5007955;28;20033;-84
2024/01/30 08:30:39;;;;;;;0.00;0.00;;;;;;;;;;5034162;28;20074;-87
2024/01/30 08:33:04;;;;;;;0.00;0.00;;;;;;;;;;5025105;28;20048;-91
2024/01/30 08:35:33;;;;;;;0.00;0.00;;;;;;;;;;4990814;28;20042;-89
2024/01/30 08:37:59;;;;;;;0.00;0.00;;;;;;;;;;4993527;28;20034;-90
2024/01/30 08:40:24;;;;;;;0.00;0.00;;;;;;;;;;5003394;28;20037;-89
2024/01/30 08:42:50;;;;;;;0.00;0.00;;;;;;;;;;5004245;28;20523;-90
2024/01/30 08:45:15;;;;;;;0.00;0.00;;;;;;;;;;5004758;28;20471;-90
2024/01/30 08:47:50;;;;;;;0.00;0.00;;;;;;;;;;5005394;28;20030;-89
2024/01/30 08:50:16;;;;;;;0.00;0.00;;;;;;;;;;5003894;28;20069;-89
2024/01/30 08:52:42;;;;;;;0.00;0.00;;;;;;;;;;5022774;28;20045;-87
2024/01/30 08:55:08;;;;;;;0.00;0.00;;;;;;;;;;5004656;28;20058;-90
2024/01/30 08:57:42;;;;;;;0.00;0.00;;;;;;;;;;5008083;28;20029;-89
2024/01/30 09:00:09;;;;;;;0.00;0.00;;;;;;;;;;5002924;28;20029;-91
2024/01/30 09:02:34;;;;;;;0.00;0.00;;;;;;;;;;5008365;28;20193;-91
2024/01/30 09:05:04;;;;;;;0.00;0.00;;;;;;;;;;5025979;28;20049;-85
2024/01/30 09:07:30;;;;;;;0.00;0.00;;;;;;;;;;4999617;28;20374;-83
2024/01/30 09:10:02;;;;;;;0.00;0.00;;;;;;;;;;5029227;28;20056;-89
2024/01/30 09:46:01;;;;;;;0.00;0.00;;;;;;;;;;5168169;23;20118;-88
2024/01/30 09:48:27;;;;;;;0.20;0.00;;;;;;;;;;4919471;29;20512;-89
2024/01/30 09:50:53;;;;;;;0.00;0.00;;;;;;;;;;4893321;29;20056;-90
2024/01/30 09:53:18;;;;;;;0.00;0.00;;;;;;;;;;4877862;29;20470;-91
2024/01/30 09:55:56;;;;;;;0.00;0.00;;;;;;;;;;4883072;29;20028;-85
2024/01/30 09:58:28;;;;;;;0.00;0.00;;;;;;;;;;4909964;29;20036;-89
2024/01/30 10:00:54;;;;;;;0.00;0.00;;;;;;;;;;4957843;28;20026;-91
2024/01/30 10:03:20;;;;;;;0.00;0.00;;;;;;;;;;4913250;29;20023;-89
2024/01/30 10:05:52;;;;;;;0.00;0.00;;;;;;;;;;4924893;29;20130;-88
2024/01/30 10:08:19;;;;;;;0.00;0.00;;;;;;;;;;4930012;29;20035;-89
2024/01/30 10:10:48;;;;;;;0.00;0.00;;;;;;;;;;4904438;29;20438;-89
2024/01/30 10:13:13;;;;;;;0.00;0.00;;;;;;;;;;4904113;29;21038;-91
2024/01/30 10:15:40;;;;;;;0.00;0.00;;;;;;;;;;4927455;29;20031;-89
2024/01/30 10:18:06;;;;;;;0.00;0.00;;;;;;;;;;4933933;29;20023;-90
2024/01/30 10:20:32;;;;;;;0.00;0.00;;;;;;;;;;4924825;29;20042;-89
2024/01/30 10:22:59;;;;;;;0.00;0.00;;;;;;;;;;4916485;29;20434;-89
2024/01/30 10:25:28;;;;;;;0.00;0.00;;;;;;;;;;4910763;29;20032;-87
2024/01/30 10:27:55;;;;;;;0.00;0.00;;;;;;;;;;4892667;29;20080;-87
2024/01/30 10:30:22;;;;;;;0.00;0.00;;;;;;;;;;4895540;29;20020;-92
2024/01/30 10:32:48;;;;;;;0.00;0.00;;;;;;;;;;4893313;29;20522;-89
2024/01/30 10:35:17;;;;;;;0.00;0.00;;;;;;;;;;4905298;29;20032;-87
2024/01/30 10:37:52;;;;;;;0.00;0.00;;;;;;;;;;4889296;29;20028;-90
2024/01/30 10:40:19;;;;;;;0.00;0.00;;;;;;;;;;4895398;29;20039;-89
2024/01/30 10:42:55;;;;;;;0.00;0.00;;;;;;;;;;4913371;29;20096;-89
2024/01/30 10:45:32;;;;;;;0.00;0.00;;;;;;;;;;4893848;29;20138;-88
2024/01/30 10:48:08;;;;;;;0.00;0.00;;;;;;;;;;4909203;29;20052;-86
2024/01/30 10:50:33;;;;;;;0.00;0.00;;;;;;;;;;4908461;29;20095;-87
2024/01/30 10:52:59;;;;;;;0.00;0.00;;;;;;;;;;4926966;29;20035;-85
2024/01/30 10:55:28;;;;;;;0.00;0.00;;;;;;;;;;4928128;29;20063;-87
2024/01/30 11:03:11;;;;;;;0.00;0.00;;;;;;;;;;1482625;26;20062;-86
2024/01/30 11:06:01;;;;;;;0.00;0.00;;;;;;;;;;4945489;28;20038;-89
2024/01/30 11:08:30;;;;;;;0.00;0.00;;;;;;;;;;4958117;28;20078;-90
2024/01/30 11:10:58;;;;;;;0.00;0.00;;;;;;;;;;4927169;29;20272;-92
2024/01/30 11:13:29;;;;;;;0.00;0.00;;;;;;;;;;4951492;29;20035;-90
2024/01/30 11:15:56;;;;;;;0.00;0.00;;;;;;;;;;4913167;29;20042;-93
2024/01/30 11:18:25;;;;;;;0.00;0.00;;;;;;;;;;4916745;29;20050;-88
2024/01/30 11:20:51;;;;;;;0.00;0.00;;;;;;;;;;4963192;29;20035;-89
2024/01/30 11:23:17;;;;;;;0.00;0.00;;;;;;;;;;4929182;29;20038;-86
2024/01/30 11:25:44;;;;;;;0.00;0.00;;;;;;;;;;4931189;29;20023;-90
2024/01/30 11:39:09;;;;;;;0.00;0.00;;;;;;;;;;4942920;28;20132;-90
2024/01/30 11:41:36;;;;;;;0.00;0.00;;;;;;;;;;4907291;29;20034;-94
2024/01/30 11:44:04;;;;;;;0.00;0.00;;;;;;;;;;4928053;29;20038;-86
2024/01/30 11:46:32;;;;;;;0.00;0.00;;;;;;;;;;4916329;29;20110;-92
2024/01/30 11:48:58;;;;;;;0.00;0.00;;;;;;;;;;4930038;29;20055;-89
2024/01/30 11:51:23;;;;;;;0.00;0.00;;;;;;;;;;4909643;29;20071;-90
2024/01/30 11:53:52;;;;;;;0.00;0.00;;;;;;;;;;4926290;29;20099;-89
2024/01/30 11:56:17;;;;;;;0.00;0.00;;;;;;;;;;4928445;29;20036;-88
2024/01/30 11:58:44;;;;;;;0.00;0.00;;;;;;;;;;4947370;29;20319;-88
2024/01/30 12:01:11;;;;;;;0.00;0.00;;;;;;;;;;4926654;29;20072;-91
2024/01/30 12:03:36;;;;;;;0.00;0.00;;;;;;;;;;4937446;29;20605;-93
2024/01/30 12:06:03;;;;;;;0.00;0.00;;;;;;;;;;4932320;29;20036;-93
2024/01/30 12:08:30;;;;;;;0.00;0.00;;;;;;;;;;4955853;29;20122;-87
2024/01/30 12:10:57;;;;;;;0.00;0.00;;;;;;;;;;4939236;29;20031;-91
2024/01/30 12:13:23;;;;;;;0.00;0.00;;;;;;;;;;4924164;29;20051;-87
2024/01/30 12:15:48;;;;;;;0.00;0.00;;;;;;;;;;4923000;29;20038;-89
2024/01/30 12:18:14;;;;;;;0.00;0.00;;;;;;;;;;4938512;29;20083;-88
2024/01/30 12:20:39;;;;;;;0.00;0.00;;;;;;;;;;4943735;29;20030;-88
2024/01/30 12:23:05;;;;;;;0.00;0.00;;;;;;;;;;4950062;29;20050;-88
2024/01/30 12:25:31;;;;;;;0.00;0.00;;;;;;;;;;4919310;29;20099;-90
2024/01/30 12:27:56;;;;;;;0.00;0.00;;;;;;;;;;4925841;29;20425;-88
2024/01/30 12:30:22;;;;;;;0.00;0.00;;;;;;;;;;4901773;29;20095;-86
2024/01/30 12:32:50;;;;;;;0.00;0.00;;;;;;;;;;4938499;29;20307;-90
2024/01/30 12:35:17;;;;;;;0.00;0.00;;;;;;;;;;4911431;29;20032;-87
2024/01/30 12:37:44;;;;;;;0.00;0.00;;;;;;;;;;4936554;29;20059;-87
2024/01/30 12:40:11;;;;;;;0.00;0.00;;;;;;;;;;4935049;29;20031;-88
2024/01/30 12:42:36;;;;;;;0.00;0.00;;;;;;;;;;4935729;29;20039;-87
2024/01/30 12:45:21;;;;;;;0.00;0.00;;;;;;;;;;4918710;29;20036;-87
2024/01/30 12:47:47;;;;;;;0.00;0.00;;;;;;;;;;4917375;29;20040;-89
2024/01/30 12:50:15;;;;;;;0.00;0.00;;;;;;;;;;4900868;29;20094;-87
2024/01/30 12:52:42;;;;;;;0.00;0.00;;;;;;;;;;4935790;29;20028;-89
2024/01/30 12:55:07;;;;;;;0.00;0.00;;;;;;;;;;4900826;29;20027;-85
2024/01/30 12:57:33;;;;;;;0.00;0.00;;;;;;;;;;4936128;29;20047;-90
2024/01/30 13:00:02;;;;;;;0.00;0.00;;;;;;;;;;4936654;29;20028;-91
2024/01/30 13:02:34;;;;;;;0.00;0.00;;;;;;;;;;4942587;29;20030;-90
2024/01/30 13:05:00;;;;;;;0.00;0.00;;;;;;;;;;4941215;29;20174;-85
2024/01/30 13:07:25;;;;;;;0.00;0.00;;;;;;;;;;4907937;29;20445;-88
2024/01/30 13:09:51;;;;;;;0.00;0.00;;;;;;;;;;4908028;29;20152;-90
2024/01/30 13:12:16;;;;;;;0.00;0.00;;;;;;;;;;4940618;29;20039;-90
2024/01/30 13:14:42;;;;;;;0.00;0.00;;;;;;;;;;4940621;29;20043;-89
2024/01/30 13:17:08;;;;;;;0.00;0.00;;;;;;;;;;4941516;29;20083;-91
2024/01/30 13:19:36;;;;;;;0.00;0.00;;;;;;;;;;4924538;29;20066;-90
2024/01/30 13:22:01;;;;;;;0.00;0.00;;;;;;;;;;4941797;29;20039;-88
2024/01/30 13:24:27;;;;;;;0.00;0.00;;;;;;;;;;4909479;29;20043;-88
2024/01/30 13:26:52;;;;;;;0.00;0.00;;;;;;;;;;4942144;29;20450;-88
2024/01/30 13:29:18;;;;;;;0.00;0.00;;;;;;;;;;4942990;29;20078;-89
2024/01/30 13:31:46;;;;;;;0.00;0.00;;;;;;;;;;4925343;29;20433;-88
2024/01/30 13:34:12;;;;;;;0.00;0.00;;;;;;;;;;4903250;29;20039;-87
2024/01/30 13:36:37;;;;;;;0.00;0.00;;;;;;;;;;4935960;29;20043;-85
2024/01/30 13:39:04;;;;;;;0.00;0.00;;;;;;;;;;4926261;29;20060;-81
2024/01/30 13:41:30;;;;;;;0.00;0.00;;;;;;;;;;4943183;29;20032;-85
2024/01/30 13:43:56;;;;;;;0.00;0.00;;;;;;;;;;4910549;29;20028;-86
2024/01/30 13:46:23;;;;;;;0.00;0.00;;;;;;;;;;4926525;29;20028;-87
2024/01/30 13:48:48;;;;;;;0.00;0.00;;;;;;;;;;4925561;29;20020;-87
2024/01/30 13:51:14;;;;;;;0.00;0.00;;;;;;;;;;4941870;29;20072;-87
2024/01/30 13:53:39;;;;;;;0.00;0.00;;;;;;;;;;4925122;29;20043;-88
2024/01/30 13:56:06;;;;;;;0.00;0.00;;;;;;;;;;4940832;29;20083;-89
2024/01/30 13:58:33;;;;;;;0.00;0.00;;;;;;;;;;4939398;29;20047;-86
2024/01/30 14:00:59;;;;;;;0.00;0.00;;;;;;;;;;4958037;29;20149;-87
2024/01/30 14:03:24;;;;;;;0.00;0.00;;;;;;;;;;4959868;29;20055;-86
2024/01/30 14:05:50;;;;;;;0.00;0.00;;;;;;;;;;4958003;29;20019;-86
2024/01/30 14:08:16;;;;;;;0.00;0.00;;;;;;;;;;4959455;29;20042;-88
2024/01/30 14:10:41;;;;;;;0.00;0.00;;;;;;;;;;4941145;29;20028;-87
2024/01/30 14:13:07;;;;;;;0.00;0.00;;;;;;;;;;4943322;29;20042;-87
2024/01/30 14:15:32;;;;;;;0.00;0.00;;;;;;;;;;4939863;29;20097;-88
2024/01/30 14:17:58;;;;;;;0.00;0.00;;;;;;;;;;4940443;29;20043;-90
2024/01/30 14:20:23;;;;;;;0.00;0.00;;;;;;;;;;4940067;29;20084;-89
2024/01/30 14:22:49;;;;;;;0.00;0.00;;;;;;;;;;4938438;29;20032;-91
2024/01/30 14:25:16;;;;;;;0.00;0.00;;;;;;;;;;4921714;29;20462;-88
2024/01/30 14:27:42;;;;;;;0.00;0.00;;;;;;;;;;4922760;29;20126;-87
2024/01/30 14:30:10;;;;;;;0.00;0.00;;;;;;;;;;4923951;29;20051;-87
2024/01/30 14:32:35;;;;;;;0.00;0.00;;;;;;;;;;4924139;29;20122;-88
2024/01/30 14:35:01;;;;;;;0.00;0.00;;;;;;;;;;4921587;29;20484;-86
2024/01/30 14:37:29;;;;;;;0.00;0.00;;;;;;;;;;4921550;29;20363;-87
2024/01/30 14:39:55;;;;;;;0.00;0.00;;;;;;;;;;4923367;29;20087;-88
2024/01/30 14:42:21;;;;;;;0.00;0.00;;;;;;;;;;4940039;29;20489;-87
2024/01/30 14:44:46;;;;;;;0.00;0.00;;;;;;;;;;4938004;29;20134;-87
2024/01/30 14:47:13;;;;;;;0.00;0.00;;;;;;;;;;4938185;29;20040;-84
2024/01/30 14:49:39;;;;;;;0.00;0.00;;;;;;;;;;4906302;29;20051;-87
2024/01/30 14:52:05;;;;;;;0.00;0.00;;;;;;;;;;4938029;29;20039;-86
2024/01/30 14:54:30;;;;;;;0.00;0.00;;;;;;;;;;4938691;29;20580;-87
2024/01/30 14:56:56;;;;;;;0.00;0.00;;;;;;;;;;4946680;29;20063;-90
2024/01/30 14:59:21;;;;;;;0.00;0.00;;;;;;;;;;4916287;29;20059;-87
2024/01/30 15:01:48;;;;;;;0.00;0.00;;;;;;;;;;4950517;29;20465;-90
2024/01/30 15:04:33;;;;;;;0.00;0.00;;;;;;;;;;4912749;29;20032;-89
2024/01/30 15:06:59;;;;;;;0.00;0.00;;;;;;;;;;4926799;29;20079;-87
2024/01/30 15:09:26;;;;;;;0.00;0.00;;;;;;;;;;4942661;29;20106;-88
2024/01/30 15:11:51;;;;;;;0.00;0.00;;;;;;;;;;4941476;29;20078;-88
2024/01/30 15:14:17;;;;;;;0.00;0.00;;;;;;;;;;4941224;29;20028;-87
2024/01/30 15:16:42;;;;;;;0.00;0.00;;;;;;;;;;4944513;29;20063;-89
2024/01/30 15:19:08;;;;;;;0.08;0.00;;;;;;;;;;4917280;29;20035;-88
2024/01/30 15:21:34;;;;;;;0.00;0.00;;;;;;;;;;4914402;29;20102;-89
2024/01/30 15:23:59;;;;;;;0.00;0.00;;;;;;;;;;4953687;29;20023;-88
2024/01/30 15:26:25;;;;;;;0.00;0.00;;;;;;;;;;4950215;29;20043;-87
2024/01/30 15:28:50;;;;;;;0.00;0.00;;;;;;;;;;4955982;29;20048;-88
2024/01/30 15:31:16;;;;;;;0.00;0.00;;;;;;;;;;4924428;29;20032;-87
2024/01/30 15:33:42;;;;;;;0.00;0.00;;;;;;;;;;4939965;29;20055;-87
2024/01/30 15:36:08;;;;;;;0.00;0.00;;;;;;;;;;4938428;29;20028;-87
2024/01/30 15:38:34;;;;;;;0.00;0.00;;;;;;;;;;4942376;29;20050;-89
2024/01/30 15:41:00;;;;;;;0.00;0.00;;;;;;;;;;4942613;29;20091;-87
2024/01/30 15:43:26;;;;;;;0.00;0.00;;;;;;;;;;4923437;29;20027;-90
2024/01/30 15:45:52;;;;;;;0.00;0.00;;;;;;;;;;4936956;29;20035;-87
2024/01/30 15:48:18;;;;;;;0.00;0.00;;;;;;;;;;4919379;29;20047;-88
2024/01/30 15:50:44;;;;;;;0.00;0.00;;;;;;;;;;4937313;29;20031;-88
2024/01/30 15:53:09;;;;;;;0.20;0.00;;;;;;;;;;4920333;29;20035;-89
2024/01/30 15:55:35;;;;;;;0.00;0.00;;;;;;;;;;4920146;29;20350;-90
2024/01/30 15:58:01;;;;;;;0.00;0.00;;;;;;;;;;4905099;29;20369;-88
2024/01/30 16:00:26;;;;;;;0.00;0.00;;;;;;;;;;4937889;29;20047;-86
2024/01/30 16:02:52;;;;;;;0.00;0.00;;;;;;;;;;4918261;29;20035;-86
2024/01/30 16:05:17;;;;;;;0.00;0.00;;;;;;;;;;4921361;29;20050;-87
2024/01/30 16:07:43;;;;;;;0.00;0.00;;;;;;;;;;4939143;29;20043;-88
2024/01/30 16:10:08;;;;;;;0.00;0.00;;;;;;;;;;4938899;29;20044;-88
2024/01/30 16:12:34;;;;;;;0.00;0.00;;;;;;;;;;4905281;29;20122;-88
2024/01/30 16:15:01;;;;;;;0.00;0.00;;;;;;;;;;4927131;29;20123;-88
2024/01/30 16:17:26;;;;;;;0.00;0.00;;;;;;;;;;4930462;29;20050;-87
2024/01/30 16:19:52;;;;;;;0.00;0.00;;;;;;;;;;4921368;29;20044;-87
2024/01/30 16:22:18;;;;;;;0.00;0.00;;;;;;;;;;4921615;29;20099;-87
2024/01/30 16:24:43;;;;;;;0.00;0.00;;;;;;;;;;4922052;29;20470;-87
2024/01/30 16:27:09;;;;;;;0.00;0.00;;;;;;;;;;4938791;29;20032;-88